createdAt,value
2022-08-20T00:01:02.010Z,21.20
2022-08-20T00:03:35.986Z,21.13
2022-08-20T00:06:10.439Z,21.11
2022-08-20T00:08:38.049Z,21.08
2022-08-20T00:11:07.234Z,21.06
2022-08-20T00:13:51.300Z,21.12
2022-08-20T00:16:20.050Z,21.10
2022-08-20T00:18:46.784Z,21.07
2022-08-20T00:21:19.078Z,20.98
2022-08-20T00:23:48.299Z,20.95
2022-08-20T00:26:15.589Z,20.91
2022-08-20T00:28:42.233Z,20.87
2022-08-20T00:31:12.051Z,20.93
2022-08-20T00:33:38.995Z,20.87
2022-08-20T00:36:09.411Z,20.80
2022-08-20T00:38:42.438Z,20.68
2022-08-20T00:41:14.460Z,20.71
2022-08-20T00:43:50.478Z,20.75
2022-08-20T00:46:28.120Z,20.68
2022-08-20T00:48:59.648Z,20.76
2022-08-20T00:51:35.258Z,20.72
2022-08-20T00:54:11.066Z,20.79
2022-08-20T00:56:38.976Z,20.70
2022-08-20T00:59:11.603Z,20.72
2022-08-20T01:01:55.097Z,20.61
2022-08-20T01:04:25.125Z,20.71
2022-08-20T01:06:51.951Z,20.63
2022-08-20T01:09:18.594Z,20.65
2022-08-20T01:12:07.000Z,20.63
2022-08-20T01:14:33.743Z,20.74
2022-08-20T01:17:05.499Z,20.62
2022-08-20T01:19:43.281Z,20.66
2022-08-20T01:22:30.782Z,20.61
2022-08-20T01:25:27.055Z,20.66
2022-08-20T01:27:55.434Z,20.47
2022-08-20T01:30:26.515Z,20.62
2022-08-20T01:32:53.241Z,20.54
2022-08-20T01:35:21.794Z,20.60
2022-08-20T01:37:48.454Z,20.53
2022-08-20T01:40:21.301Z,20.56
2022-08-20T01:42:52.707Z,20.39
2022-08-20T01:45:28.011Z,20.43
2022-08-20T01:47:57.600Z,20.45
2022-08-20T01:50:27.817Z,20.48
2022-08-20T01:53:11.662Z,20.46
2022-08-20T01:55:38.765Z,20.38
2022-08-20T01:58:05.404Z,20.34
2022-08-20T02:00:34.911Z,20.22
2022-08-20T02:03:03.309Z,20.13
2022-08-20T02:05:31.351Z,19.98
2022-08-20T02:07:58.115Z,20.21
2022-08-20T02:10:24.852Z,20.13
2022-08-20T02:12:53.018Z,20.06
2022-08-20T02:15:34.643Z,20.25
2022-08-20T02:18:08.038Z,20.16
2022-08-20T02:20:35.888Z,20.08
2022-08-20T02:23:03.447Z,20.07
2022-08-20T02:25:33.778Z,20.22
2022-08-20T02:28:12.476Z,20.29
2022-08-20T02:30:42.386Z,20.38
2022-08-20T02:33:12.351Z,20.29
2022-08-20T02:35:41.234Z,20.32
2022-08-20T02:38:08.041Z,20.34
2022-08-20T02:40:36.060Z,20.26
2022-08-20T02:43:04.605Z,20.32
2022-08-20T02:45:37.222Z,20.31
2022-08-20T02:48:05.287Z,20.27
2022-08-20T02:50:32.196Z,20.22
2022-08-20T02:52:58.891Z,20.14
2022-08-20T02:55:27.870Z,20.02
2022-08-20T02:58:00.272Z,20.02
2022-08-20T03:00:38.057Z,20.14
2022-08-20T03:03:08.119Z,20.21
2022-08-20T03:05:36.384Z,20.17
2022-08-20T03:08:07.502Z,20.16
2022-08-20T03:10:35.773Z,20.20
2022-08-20T03:13:03.486Z,20.18
2022-08-20T03:15:32.681Z,20.22
2022-08-20T03:17:59.861Z,20.22
2022-08-20T03:20:27.728Z,20.20
2022-08-20T03:22:54.895Z,20.21
2022-08-20T03:25:22.208Z,20.05
2022-08-20T03:27:53.991Z,19.96
2022-08-20T03:30:24.296Z,19.93
2022-08-20T03:32:51.037Z,19.97
2022-08-20T03:35:19.498Z,19.94
2022-08-20T03:37:48.590Z,19.94
2022-08-20T03:40:29.270Z,19.89
2022-08-20T03:42:56.017Z,19.81
2022-08-20T03:45:24.589Z,19.83
2022-08-20T03:47:52.594Z,19.81
2022-08-20T03:50:22.971Z,19.83
2022-08-20T03:52:52.291Z,19.79
2022-08-20T03:55:20.476Z,19.86
2022-08-20T03:57:55.147Z,19.83
2022-08-20T04:00:47.181Z,19.85
2022-08-20T04:03:14.083Z,19.73
2022-08-20T04:05:41.626Z,19.65
2022-08-20T04:08:16.029Z,19.59
2022-08-20T04:10:43.182Z,19.67
2022-08-20T04:13:09.839Z,19.64
2022-08-20T04:15:37.308Z,19.60
2022-08-20T04:18:07.682Z,19.57
2022-08-20T04:20:36.821Z,19.47
2022-08-20T04:23:03.954Z,19.44
2022-08-20T04:25:35.920Z,19.43
2022-08-20T04:28:06.083Z,19.39
2022-08-20T04:30:33.459Z,19.31
2022-08-20T04:33:00.666Z,19.27
2022-08-20T04:35:28.554Z,19.29
2022-08-20T04:37:59.389Z,19.42
2022-08-20T04:40:45.047Z,19.32
2022-08-20T04:43:12.429Z,19.33
2022-08-20T04:45:40.309Z,19.36
2022-08-20T04:48:10.538Z,19.42
2022-08-20T04:50:41.823Z,19.41
2022-08-20T04:53:11.209Z,19.42
2022-08-20T04:55:42.832Z,19.33
2022-08-20T04:58:13.704Z,19.41
2022-08-20T05:00:41.054Z,19.59
2022-08-20T05:03:07.635Z,19.56
2022-08-20T05:05:38.103Z,19.58
2022-08-20T05:08:04.982Z,19.61
2022-08-20T05:10:31.973Z,19.64
2022-08-20T05:12:58.980Z,19.60
2022-08-20T05:15:26.163Z,19.55
2022-08-20T05:18:01.875Z,19.57
2022-08-20T05:20:31.371Z,19.66
2022-08-20T05:23:02.559Z,19.65
2022-08-20T05:25:30.650Z,19.67
2022-08-20T05:28:03.916Z,19.81
2022-08-20T05:30:36.457Z,19.82
2022-08-20T05:33:05.781Z,19.84
2022-08-20T05:35:34.950Z,19.84
2022-08-20T05:38:02.095Z,19.88
2022-08-20T05:40:29.017Z,19.91
2022-08-20T05:42:55.594Z,19.95
2022-08-20T05:45:23.462Z,20.05
2022-08-20T05:47:56.418Z,20.04
2022-08-20T05:50:24.282Z,19.98
2022-08-20T05:52:51.222Z,20.09
2022-08-20T05:55:17.876Z,20.14
2022-08-20T05:57:45.830Z,20.30
2022-08-20T06:00:14.470Z,20.42
2022-08-20T06:03:00.546Z,20.41
2022-08-20T06:05:27.618Z,20.57
2022-08-20T06:07:57.921Z,20.74
2022-08-20T06:10:35.282Z,20.60
2022-08-20T06:13:03.064Z,20.54
2022-08-20T06:15:31.105Z,20.56
2022-08-20T06:17:58.706Z,20.68
2022-08-20T06:20:26.430Z,20.71
2022-08-20T06:22:52.999Z,20.64
2022-08-20T06:25:20.175Z,20.56
2022-08-20T06:27:48.098Z,20.69
2022-08-20T06:30:15.613Z,20.71
2022-08-20T06:32:42.423Z,20.82
2022-08-20T06:35:10.680Z,20.93
2022-08-20T06:37:39.927Z,20.99
2022-08-20T06:40:11.927Z,21.01
2022-08-20T06:42:48.278Z,20.87
2022-08-20T06:45:18.875Z,20.88
2022-08-20T06:47:46.764Z,20.81
2022-08-20T06:50:17.631Z,20.87
2022-08-20T06:52:52.981Z,20.67
2022-08-20T06:55:20.716Z,20.77
2022-08-20T06:57:48.438Z,20.53
2022-08-20T07:00:18.759Z,20.29
2022-08-20T07:02:47.089Z,20.12
2022-08-20T07:05:13.741Z,19.99
2022-08-20T07:07:44.774Z,19.93
2022-08-20T07:10:13.434Z,19.92
2022-08-20T07:12:40.100Z,19.87
2022-08-20T07:15:09.725Z,20.13
2022-08-20T07:17:37.160Z,20.19
2022-08-20T07:20:09.592Z,20.17
2022-08-20T07:22:37.027Z,20.51
2022-08-20T07:25:10.058Z,21.33
2022-08-20T07:27:37.412Z,20.72
2022-08-20T07:30:25.397Z,20.38
2022-08-20T07:32:51.988Z,20.47
2022-08-20T07:35:19.366Z,20.62
2022-08-20T07:37:49.027Z,21.02
2022-08-20T07:40:25.258Z,21.13
2022-08-20T07:42:53.514Z,20.97
2022-08-20T07:45:20.754Z,21.02
2022-08-20T07:47:49.538Z,21.43
2022-08-20T07:50:19.645Z,22.23
2022-08-20T07:52:47.005Z,22.28
2022-08-20T07:55:16.454Z,21.98
2022-08-20T07:57:46.871Z,21.52
2022-08-20T08:00:14.904Z,21.49
2022-08-20T08:02:41.862Z,21.41
2022-08-20T08:05:09.350Z,21.29
2022-08-20T08:07:36.891Z,21.52
2022-08-20T08:10:06.471Z,21.52
2022-08-20T08:12:36.818Z,21.67
2022-08-20T08:15:10.089Z,21.48
2022-08-20T08:17:37.672Z,22.10
2022-08-20T08:20:06.595Z,23.35
2022-08-20T08:22:33.469Z,23.27
2022-08-20T08:25:02.447Z,22.57
2022-08-20T08:27:33.363Z,22.46
2022-08-20T08:30:01.327Z,22.30
2022-08-20T08:32:28.611Z,22.41
2022-08-20T08:34:55.212Z,23.30
2022-08-20T08:37:21.827Z,24.54
2022-08-20T08:39:48.491Z,24.92
2022-08-20T08:42:28.655Z,24.95
2022-08-20T08:44:55.360Z,25.27
2022-08-20T08:47:29.485Z,25.05
2022-08-20T08:49:57.388Z,25.84
2022-08-20T08:52:28.378Z,26.51
2022-08-20T08:54:59.121Z,25.61
2022-08-20T08:57:26.244Z,25.62
2022-08-20T09:00:08.177Z,26.22
2022-08-20T09:02:36.306Z,26.57
2022-08-20T09:05:13.493Z,27.35
2022-08-20T09:07:49.535Z,26.76
2022-08-20T09:10:22.820Z,25.01
2022-08-20T09:12:50.151Z,24.33
2022-08-20T09:15:18.905Z,24.21
2022-08-20T09:17:45.469Z,24.13
2022-08-20T09:20:12.209Z,26.09
2022-08-20T09:22:38.887Z,26.54
2022-08-20T09:25:05.982Z,26.61
2022-08-20T09:27:32.756Z,25.27
2022-08-20T09:29:59.345Z,24.55
2022-08-20T09:32:26.227Z,25.05
2022-08-20T09:34:59.013Z,24.08
2022-08-20T09:37:33.685Z,24.74
2022-08-20T09:40:04.400Z,26.56
2022-08-20T09:42:37.615Z,26.37
2022-08-20T09:45:10.919Z,27.16
2022-08-20T09:47:38.935Z,26.51
2022-08-20T09:50:10.563Z,26.15
2022-08-20T09:52:44.455Z,26.91
2022-08-20T09:55:22.219Z,26.09
2022-08-20T09:57:51.259Z,27.12
2022-08-20T10:00:18.587Z,27.12
2022-08-20T10:02:45.864Z,26.80
2022-08-20T10:05:13.173Z,26.00
2022-08-20T10:07:40.508Z,25.33
2022-08-20T10:10:09.315Z,25.57
2022-08-20T10:12:36.179Z,25.87
2022-08-20T10:15:02.931Z,26.13
2022-08-20T10:17:32.278Z,26.02
2022-08-20T10:19:58.891Z,25.80
2022-08-20T10:22:27.346Z,27.13
2022-08-20T10:24:53.943Z,27.73
2022-08-20T10:27:20.638Z,26.48
2022-08-20T10:29:47.243Z,25.50
2022-08-20T10:32:16.243Z,25.51
2022-08-20T10:34:44.936Z,26.32
2022-08-20T10:37:16.834Z,26.14
2022-08-20T10:39:43.580Z,27.32
2022-08-20T10:42:10.851Z,27.67
2022-08-20T10:44:37.728Z,25.98
2022-08-20T10:47:15.272Z,26.66
2022-08-20T10:49:42.050Z,28.38
2022-08-20T10:52:08.746Z,29.50
2022-08-20T10:54:35.375Z,29.84
2022-08-20T10:57:03.706Z,29.10
2022-08-20T10:59:31.025Z,28.13
2022-08-20T11:01:57.778Z,29.06
2022-08-20T11:04:24.543Z,29.09
2022-08-20T11:06:51.121Z,30.15
2022-08-20T11:09:17.868Z,28.41
2022-08-20T11:11:44.586Z,29.45
2022-08-20T11:14:11.203Z,28.01
2022-08-20T11:16:37.816Z,29.31
2022-08-20T11:19:04.394Z,28.87
2022-08-20T11:21:31.200Z,27.72
2022-08-20T11:24:02.222Z,28.14
2022-08-20T11:26:29.527Z,27.32
2022-08-20T11:28:56.152Z,26.61
2022-08-20T11:31:22.817Z,27.00
2022-08-20T11:33:49.399Z,28.36
2022-08-20T11:36:16.026Z,28.90
2022-08-20T11:38:42.791Z,28.71
2022-08-20T11:41:09.447Z,29.11
2022-08-20T11:43:36.044Z,30.23
2022-08-20T11:46:02.624Z,28.71
2022-08-20T11:48:29.293Z,29.15
2022-08-20T11:50:56.036Z,29.07
2022-08-20T11:53:22.661Z,30.08
2022-08-20T11:55:49.345Z,29.06
2022-08-20T11:58:16.078Z,29.38
2022-08-20T12:00:42.832Z,29.48
2022-08-20T12:03:11.695Z,29.65
2022-08-20T12:05:41.845Z,29.88
2022-08-20T12:08:09.239Z,28.45
2022-08-20T12:10:38.105Z,29.20
2022-08-20T12:13:06.805Z,28.59
2022-08-20T12:15:36.013Z,28.94
2022-08-20T12:18:07.434Z,29.95
2022-08-20T12:20:34.905Z,29.18
2022-08-20T12:23:01.597Z,29.53
2022-08-20T12:25:28.378Z,29.16
2022-08-20T12:27:55.104Z,29.56
2022-08-20T12:44:53.807Z,29.84
2022-08-20T13:01:27.151Z,29.09
2022-08-20T13:04:01.041Z,28.83
2022-08-20T13:06:31.903Z,28.77
2022-08-20T13:08:58.501Z,29.54
2022-08-20T13:11:25.121Z,29.69
2022-08-20T13:13:52.184Z,28.99
2022-08-20T13:16:18.839Z,28.52
2022-08-20T13:18:48.730Z,29.21
2022-08-20T13:21:15.910Z,28.29
2022-08-20T13:23:42.887Z,29.16
2022-08-20T13:26:09.627Z,29.78
2022-08-20T13:28:37.099Z,29.34
2022-08-20T13:31:03.674Z,28.93
2022-08-20T13:33:30.688Z,28.99
2022-08-20T13:35:59.974Z,29.06
2022-08-20T13:38:38.013Z,29.04
2022-08-20T13:41:06.892Z,28.51
2022-08-20T13:43:33.542Z,29.19
2022-08-20T13:46:00.196Z,28.99
2022-08-20T13:48:26.779Z,28.79
2022-08-20T13:50:53.409Z,29.52
2022-08-20T13:53:21.552Z,29.42
2022-08-20T13:55:49.671Z,28.62
2022-08-20T13:58:17.458Z,29.24
2022-08-20T14:00:45.807Z,28.28
2022-08-20T14:03:12.787Z,28.04
2022-08-20T14:05:40.645Z,28.26
2022-08-20T14:08:14.157Z,27.88
2022-08-20T14:10:42.576Z,28.29
2022-08-20T14:13:14.645Z,27.74
2022-08-20T14:15:42.186Z,28.39
2022-08-20T14:18:09.133Z,27.73
2022-08-20T14:20:35.901Z,28.56
2022-08-20T14:23:05.808Z,28.13
2022-08-20T14:25:33.172Z,28.18
2022-08-20T14:28:09.708Z,28.25
2022-08-20T14:30:36.472Z,28.69
2022-08-20T14:33:03.106Z,29.25
2022-08-20T14:35:29.733Z,28.29
2022-08-20T14:37:57.720Z,29.06
2022-08-20T14:40:26.540Z,28.37
2022-08-20T14:42:54.203Z,28.13
2022-08-20T14:45:21.929Z,27.83
2022-08-20T14:47:57.827Z,28.53
2022-08-20T14:50:29.030Z,27.91
2022-08-20T14:52:56.424Z,27.84
2022-08-20T14:55:26.528Z,28.13
2022-08-20T14:57:54.109Z,27.96
2022-08-20T15:00:24.910Z,27.96
2022-08-20T15:02:52.059Z,28.06
2022-08-20T15:05:18.890Z,28.33
2022-08-20T15:07:47.997Z,28.21
2022-08-20T15:10:24.589Z,27.87
2022-08-20T15:12:51.324Z,27.35
2022-08-20T15:15:18.557Z,27.29
2022-08-20T15:17:49.221Z,27.43
2022-08-20T15:20:20.684Z,27.57
2022-08-20T15:22:49.167Z,27.64
2022-08-20T15:25:18.250Z,27.22
2022-08-20T15:27:45.391Z,27.14
2022-08-20T15:30:16.533Z,27.52
2022-08-20T15:32:43.745Z,27.40
2022-08-20T15:35:11.496Z,27.74
2022-08-20T15:37:43.758Z,27.31
2022-08-20T15:40:12.415Z,27.02
2022-08-20T15:42:43.035Z,27.09
2022-08-20T15:45:21.839Z,27.29
2022-08-20T15:47:59.736Z,27.39
2022-08-20T15:50:35.435Z,26.86
2022-08-20T15:53:09.439Z,27.13
2022-08-20T15:55:39.344Z,27.26
2022-08-20T15:58:11.684Z,26.67
2022-08-20T16:00:53.334Z,26.48
2022-08-20T16:03:40.361Z,26.69
2022-08-20T16:06:15.250Z,26.59
2022-08-20T16:09:05.944Z,26.53
2022-08-20T16:11:52.448Z,26.34
2022-08-20T16:14:22.998Z,26.21
2022-08-20T16:16:59.069Z,26.27
2022-08-20T16:19:34.947Z,26.28
2022-08-20T16:22:03.643Z,26.03
2022-08-20T16:24:31.485Z,25.76
2022-08-20T16:27:18.296Z,25.56
2022-08-20T16:29:45.691Z,25.53
2022-08-20T16:32:30.827Z,25.75
2022-08-20T16:35:14.851Z,25.48
2022-08-20T16:37:55.141Z,25.35
2022-08-20T16:40:38.009Z,25.14
2022-08-20T16:43:06.364Z,25.21
2022-08-20T16:45:51.529Z,25.14
2022-08-20T16:48:19.997Z,25.11
2022-08-20T16:50:58.824Z,24.93
2022-08-20T16:53:26.211Z,24.78
2022-08-20T16:55:53.924Z,24.69
2022-08-20T16:58:20.929Z,24.41
2022-08-20T17:00:47.975Z,24.42
2022-08-20T17:03:31.746Z,24.21
2022-08-20T17:06:31.562Z,24.14
2022-08-20T17:08:59.026Z,24.02
2022-08-20T17:11:32.577Z,23.99
2022-08-20T17:14:19.416Z,23.92
2022-08-20T17:16:50.425Z,23.87
2022-08-20T17:19:34.967Z,23.75
2022-08-20T17:22:10.578Z,23.74
2022-08-20T17:24:37.813Z,23.56
2022-08-20T17:27:14.853Z,23.55
2022-08-20T17:29:53.994Z,23.57
2022-08-20T17:32:29.833Z,23.49
2022-08-20T17:34:59.361Z,23.37
2022-08-20T17:37:39.825Z,23.32
2022-08-20T17:40:16.100Z,23.29
2022-08-20T17:42:52.263Z,23.21
2022-08-20T17:45:28.188Z,23.06
2022-08-20T17:47:58.522Z,23.09
2022-08-20T17:50:31.630Z,23.07
2022-08-20T17:53:04.922Z,23.01
2022-08-20T17:55:33.821Z,22.99
2022-08-20T17:58:03.750Z,22.98
2022-08-20T18:00:31.073Z,22.88
2022-08-20T18:03:07.927Z,22.79
2022-08-20T18:05:36.782Z,22.66
2022-08-20T18:08:03.434Z,22.66
2022-08-20T18:10:36.730Z,22.74
2022-08-20T18:13:48.018Z,22.72
2022-08-20T18:16:25.529Z,22.49
2022-08-20T18:19:47.475Z,22.22
2022-08-20T18:22:23.004Z,22.32
2022-08-20T18:24:57.990Z,22.20
2022-08-20T18:27:28.249Z,22.12
2022-08-20T18:30:00.497Z,22.19
2022-08-20T18:32:37.553Z,22.08
2022-08-20T18:35:33.102Z,21.94
2022-08-20T18:38:30.005Z,21.85
2022-08-20T18:41:27.031Z,21.75
2022-08-20T18:44:02.753Z,21.67
2022-08-20T18:46:29.449Z,21.62
2022-08-20T18:49:03.090Z,21.51
2022-08-20T18:51:37.823Z,21.37
2022-08-20T18:54:04.917Z,21.53
2022-08-20T18:56:38.266Z,21.35
2022-08-20T18:59:39.251Z,21.20
2022-08-20T19:02:22.168Z,21.12
2022-08-20T19:04:59.699Z,21.07
2022-08-20T19:07:48.188Z,21.05
2022-08-20T19:10:27.891Z,20.96
2022-08-20T19:13:25.926Z,20.80
2022-08-20T19:15:59.385Z,20.56
2022-08-20T19:18:39.819Z,20.63
2022-08-20T19:21:15.451Z,20.45
2022-08-20T19:23:48.545Z,20.44
2022-08-20T19:26:25.433Z,20.29
2022-08-20T19:29:00.379Z,20.31
2022-08-20T19:31:31.910Z,20.27
2022-08-20T19:34:21.707Z,20.23
2022-08-20T19:37:15.033Z,20.40
2022-08-20T19:39:53.168Z,20.40
2022-08-20T19:42:46.347Z,20.13
2022-08-20T19:45:26.325Z,20.22
2022-08-20T19:48:31.532Z,19.88
2022-08-20T19:51:08.983Z,19.65
2022-08-20T19:53:42.125Z,19.54
2022-08-20T19:56:23.833Z,19.65
2022-08-20T19:59:02.422Z,19.55
2022-08-20T20:01:29.712Z,19.68
2022-08-20T20:03:59.994Z,19.55
2022-08-20T20:06:28.148Z,19.80
2022-08-20T20:09:01.854Z,19.69
2022-08-20T20:11:36.686Z,19.41
2022-08-20T20:14:06.872Z,19.26
2022-08-20T20:16:34.728Z,19.39
2022-08-20T20:19:25.217Z,19.12
2022-08-20T20:22:03.784Z,18.84
2022-08-20T20:24:41.808Z,18.66
2022-08-20T20:27:20.174Z,18.60
2022-08-20T20:29:48.988Z,18.49
2022-08-20T20:32:23.736Z,18.47
2022-08-20T20:34:56.774Z,18.56
2022-08-20T20:37:50.231Z,18.58
2022-08-20T20:40:20.759Z,18.54
2022-08-20T20:43:07.417Z,18.40
2022-08-20T20:45:38.041Z,18.38
2022-08-20T20:48:23.414Z,18.09
2022-08-20T20:50:51.632Z,18.11
2022-08-20T20:53:52.960Z,18.02
2022-08-20T20:56:35.474Z,18.13
2022-08-20T20:59:06.875Z,18.14
2022-08-20T21:01:49.944Z,18.06
2022-08-20T21:04:19.826Z,17.79
2022-08-20T21:06:46.709Z,17.84
2022-08-20T21:09:13.674Z,18.10
2022-08-20T21:11:40.368Z,17.77
2022-08-20T21:14:06.985Z,17.77
2022-08-20T21:16:33.762Z,17.58
2022-08-20T21:19:01.647Z,17.43
2022-08-20T21:21:28.246Z,17.46
2022-08-20T21:23:54.826Z,17.39
2022-08-20T21:26:21.490Z,17.32
2022-08-20T21:28:48.146Z,17.27
2022-08-20T21:31:14.737Z,17.24
2022-08-20T21:33:41.339Z,17.18
2022-08-20T21:36:07.955Z,17.15
2022-08-20T21:38:34.578Z,17.25
2022-08-20T21:41:01.374Z,17.20
2022-08-20T21:43:32.657Z,17.28
2022-08-20T21:46:01.452Z,17.17
2022-08-20T21:48:29.182Z,17.10
2022-08-20T21:50:55.762Z,17.13
2022-08-20T21:53:22.967Z,17.24
2022-08-20T21:55:49.819Z,17.29
2022-08-20T21:58:16.676Z,17.19
2022-08-20T22:00:54.180Z,17.05
2022-08-20T22:03:26.091Z,17.17
2022-08-20T22:05:54.969Z,16.93
2022-08-20T22:08:26.112Z,16.71
2022-08-20T22:10:57.180Z,16.46
2022-08-20T22:13:25.326Z,16.38
2022-08-20T22:15:51.896Z,16.38
2022-08-20T22:18:18.541Z,16.35
2022-08-20T22:20:48.182Z,16.49
2022-08-20T22:23:14.987Z,16.36
2022-08-20T22:25:41.908Z,16.29
2022-08-20T22:28:09.097Z,16.18
2022-08-20T22:30:39.414Z,16.10
2022-08-20T22:33:13.383Z,16.25
2022-08-20T22:35:48.604Z,16.40
2022-08-20T22:38:15.832Z,16.44
2022-08-20T22:40:43.667Z,16.55
2022-08-20T22:43:10.936Z,16.42
2022-08-20T22:45:38.902Z,16.38
2022-08-20T22:48:06.802Z,16.26
2022-08-20T22:50:33.578Z,16.12
2022-08-20T22:53:01.563Z,16.12
2022-08-20T22:55:28.293Z,15.89
2022-08-20T22:57:55.189Z,15.96
2022-08-20T23:00:24.250Z,16.06
2022-08-20T23:02:56.437Z,16.12
2022-08-20T23:05:26.123Z,16.49
2022-08-20T23:07:54.521Z,16.46
2022-08-20T23:10:21.930Z,16.35
2022-08-20T23:12:48.757Z,16.12
2022-08-20T23:15:15.437Z,15.93
2022-08-20T23:17:42.481Z,15.60
2022-08-20T23:20:13.195Z,15.54
2022-08-20T23:22:39.829Z,15.74
2022-08-20T23:25:08.418Z,15.67
2022-08-20T23:27:41.570Z,15.75
2022-08-20T23:30:08.654Z,15.84
2022-08-20T23:32:35.276Z,15.63
2022-08-20T23:35:02.054Z,15.51
2022-08-20T23:37:28.687Z,15.38
2022-08-20T23:39:55.712Z,15.44
2022-08-20T23:42:22.353Z,15.28
2022-08-20T23:44:48.914Z,15.52
2022-08-20T23:47:20.270Z,15.48
2022-08-20T23:49:46.915Z,15.38
2022-08-20T23:52:13.575Z,15.26
2022-08-20T23:54:41.115Z,15.28
2022-08-20T23:57:08.100Z,15.13
2022-08-20T23:59:35.822Z,15.00
